sensor_id;sensor_type;location;lat;lon;timestamp;P1;durP1;ratioP1;P2;durP2;ratioP2
58460;SDS011;45558;37.752;-97.822;2023-09-30T00:00:57;6.45;;;1.70;;
58460;SDS011;45558;37.752;-97.822;2023-09-30T00:03:22;8.77;;;1.20;;
58460;SDS011;45558;37.752;-97.822;2023-09-30T00:05:48;7.80;;;1.85;;
58460;SDS011;45558;37.752;-97.822;2023-09-30T00:08:14;7.20;;;1.80;;
58460;SDS011;45558;37.752;-97.822;2023-09-30T00:10:40;8.15;;;1.48;;
58460;SDS011;45558;37.752;-97.822;2023-09-30T00:13:06;9.57;;;1.83;;
58460;SDS011;45558;37.752;-97.822;2023-09-30T00:15:34;6.90;;;1.40;;
58460;SDS011;45558;37.752;-97.822;2023-09-30T00:18:00;6.93;;;1.85;;
58460;SDS011;45558;37.752;-97.822;2023-09-30T00:20:29;8.75;;;1.67;;
58460;SDS011;45558;37.752;-97.822;2023-09-30T00:22:54;6.72;;;1.90;;
58460;SDS011;45558;37.752;-97.822;2023-09-30T00:25:20;7.47;;;2.05;;
58460;SDS011;45558;37.752;-97.822;2023-09-30T00:27:47;11.18;;;1.70;;
58460;SDS011;45558;37.752;-97.822;2023-09-30T00:30:13;7.85;;;2.05;;
58460;SDS011;45558;37.752;-97.822;2023-09-30T00:32:39;10.45;;;2.47;;
58460;SDS011;45558;37.752;-97.822;2023-09-30T00:35:05;12.18;;;3.08;;
58460;SDS011;45558;37.752;-97.822;2023-09-30T00:37:37;9.23;;;1.83;;
58460;SDS011;45558;37.752;-97.822;2023-09-30T00:40:03;13.35;;;2.28;;
58460;SDS011;45558;37.752;-97.822;2023-09-30T00:42:30;11.30;;;2.15;;
58460;SDS011;45558;37.752;-97.822;2023-09-30T00:44:55;7.88;;;1.83;;
58460;SDS011;45558;37.752;-97.822;2023-09-30T00:47:22;13.10;;;2.83;;
58460;SDS011;45558;37.752;-97.822;2023-09-30T00:49:49;12.45;;;2.72;;
58460;SDS011;45558;37.752;-97.822;2023-09-30T00:52:15;15.75;;;3.60;;
58460;SDS011;45558;37.752;-97.822;2023-09-30T00:54:42;15.70;;;4.05;;
58460;SDS011;45558;37.752;-97.822;2023-09-30T00:57:09;8.77;;;3.15;;
58460;SDS011;45558;37.752;-97.822;2023-09-30T00:59:35;12.95;;;3.35;;
58460;SDS011;45558;37.752;-97.822;2023-09-30T01:02:00;13.30;;;3.13;;
58460;SDS011;45558;37.752;-97.822;2023-09-30T01:04:27;13.57;;;4.13;;
58460;SDS011;45558;37.752;-97.822;2023-09-30T01:06:53;13.43;;;2.65;;
58460;SDS011;45558;37.752;-97.822;2023-09-30T01:09:19;19.98;;;3.63;;
58460;SDS011;45558;37.752;-97.822;2023-09-30T01:11:45;10.48;;;3.38;;
58460;SDS011;45558;37.752;-97.822;2023-09-30T01:20:31;10.75;;;3.45;;
58460;SDS011;45558;37.752;-97.822;2023-09-30T01:22:57;13.60;;;3.55;;
58460;SDS011;45558;37.752;-97.822;2023-09-30T01:25:23;17.98;;;3.58;;
58460;SDS011;45558;37.752;-97.822;2023-09-30T01:27:49;13.13;;;3.58;;
58460;SDS011;45558;37.752;-97.822;2023-09-30T01:30:16;8.82;;;3.17;;
58460;SDS011;45558;37.752;-97.822;2023-09-30T01:32:43;17.15;;;3.30;;
58460;SDS011;45558;37.752;-97.822;2023-09-30T01:35:09;11.10;;;3.25;;
58460;SDS011;45558;37.752;-97.822;2023-09-30T01:37:35;8.25;;;3.13;;
58460;SDS011;45558;37.752;-97.822;2023-09-30T01:40:01;8.63;;;2.67;;
58460;SDS011;45558;37.752;-97.822;2023-09-30T01:42:29;9.60;;;4.13;;
58460;SDS011;45558;37.752;-97.822;2023-09-30T01:44:54;12.93;;;3.40;;
58460;SDS011;45558;37.752;-97.822;2023-09-30T01:47:22;7.80;;;2.75;;
58460;SDS011;45558;37.752;-97.822;2023-09-30T01:49:47;12.38;;;3.75;;
58460;SDS011;45558;37.752;-97.822;2023-09-30T01:52:13;12.35;;;3.70;;
58460;SDS011;45558;37.752;-97.822;2023-09-30T01:54:39;14.60;;;3.63;;
58460;SDS011;45558;37.752;-97.822;2023-09-30T01:57:05;7.78;;;2.97;;
58460;SDS011;45558;37.752;-97.822;2023-09-30T01:59:30;10.10;;;3.83;;
58460;SDS011;45558;37.752;-97.822;2023-09-30T02:01:56;13.32;;;3.08;;
58460;SDS011;45558;37.752;-97.822;2023-09-30T02:04:22;13.23;;;3.10;;
58460;SDS011;45558;37.752;-97.822;2023-09-30T02:06:48;11.70;;;3.72;;
58460;SDS011;45558;37.752;-97.822;2023-09-30T02:09:13;17.30;;;3.60;;
58460;SDS011;45558;37.752;-97.822;2023-09-30T02:11:39;13.63;;;3.42;;
58460;SDS011;45558;37.752;-97.822;2023-09-30T02:14:06;12.02;;;3.60;;
58460;SDS011;45558;37.752;-97.822;2023-09-30T02:16:31;12.73;;;3.30;;
58460;SDS011;45558;37.752;-97.822;2023-09-30T02:18:57;11.50;;;4.05;;
58460;SDS011;45558;37.752;-97.822;2023-09-30T02:21:23;10.80;;;3.60;;
58460;SDS011;45558;37.752;-97.822;2023-09-30T02:23:49;10.05;;;3.65;;
58460;SDS011;45558;37.752;-97.822;2023-09-30T02:26:15;14.48;;;3.22;;
58460;SDS011;45558;37.752;-97.822;2023-09-30T02:28:41;12.43;;;3.05;;
58460;SDS011;45558;37.752;-97.822;2023-09-30T02:31:06;10.75;;;3.70;;
58460;SDS011;45558;37.752;-97.822;2023-09-30T02:33:33;10.75;;;3.42;;
58460;SDS011;45558;37.752;-97.822;2023-09-30T02:36:02;13.38;;;3.85;;
58460;SDS011;45558;37.752;-97.822;2023-09-30T02:38:31;8.38;;;2.92;;
58460;SDS011;45558;37.752;-97.822;2023-09-30T02:40:57;7.30;;;3.00;;
58460;SDS011;45558;37.752;-97.822;2023-09-30T02:43:23;12.38;;;3.55;;
58460;SDS011;45558;37.752;-97.822;2023-09-30T02:45:48;8.65;;;2.92;;
58460;SDS011;45558;37.752;-97.822;2023-09-30T02:48:15;10.18;;;3.15;;
58460;SDS011;45558;37.752;-97.822;2023-09-30T02:50:43;17.92;;;3.38;;
58460;SDS011;45558;37.752;-97.822;2023-09-30T02:53:12;11.57;;;3.30;;
58460;SDS011;45558;37.752;-97.822;2023-09-30T02:55:39;9.43;;;3.13;;
58460;SDS011;45558;37.752;-97.822;2023-09-30T02:58:06;12.65;;;3.22;;
58460;SDS011;45558;37.752;-97.822;2023-09-30T03:00:34;11.30;;;3.08;;
58460;SDS011;45558;37.752;-97.822;2023-09-30T03:03:01;14.52;;;2.63;;
58460;SDS011;45558;37.752;-97.822;2023-09-30T03:05:27;14.95;;;2.88;;
58460;SDS011;45558;37.752;-97.822;2023-09-30T03:07:55;17.60;;;4.10;;
58460;SDS011;45558;37.752;-97.822;2023-09-30T03:10:21;14.15;;;3.25;;
58460;SDS011;45558;37.752;-97.822;2023-09-30T03:12:51;12.77;;;3.22;;
58460;SDS011;45558;37.752;-97.822;2023-09-30T03:15:17;6.97;;;2.30;;
58460;SDS011;45558;37.752;-97.822;2023-09-30T03:17:43;12.43;;;2.70;;
58460;SDS011;45558;37.752;-97.822;2023-09-30T03:20:10;10.60;;;2.65;;
58460;SDS011;45558;37.752;-97.822;2023-09-30T03:22:43;13.88;;;3.30;;
58460;SDS011;45558;37.752;-97.822;2023-09-30T03:25:12;14.25;;;3.17;;
58460;SDS011;45558;37.752;-97.822;2023-09-30T03:27:40;18.20;;;3.17;;
58460;SDS011;45558;37.752;-97.822;2023-09-30T03:30:06;17.90;;;3.00;;
58460;SDS011;45558;37.752;-97.822;2023-09-30T03:32:34;10.45;;;3.45;;
58460;SDS011;45558;37.752;-97.822;2023-09-30T03:35:04;11.35;;;2.30;;
58460;SDS011;45558;37.752;-97.822;2023-09-30T03:37:31;6.85;;;2.10;;
58460;SDS011;45558;37.752;-97.822;2023-09-30T03:39:57;9.73;;;3.38;;
58460;SDS011;45558;37.752;-97.822;2023-09-30T03:42:23;11.43;;;2.70;;
58460;SDS011;45558;37.752;-97.822;2023-09-30T03:44:49;11.43;;;4.18;;
58460;SDS011;45558;37.752;-97.822;2023-09-30T03:47:18;16.98;;;3.20;;
58460;SDS011;45558;37.752;-97.822;2023-09-30T03:49:44;11.00;;;3.13;;
58460;SDS011;45558;37.752;-97.822;2023-09-30T03:52:11;8.45;;;3.25;;
58460;SDS011;45558;37.752;-97.822;2023-09-30T03:54:37;9.45;;;3.20;;
58460;SDS011;45558;37.752;-97.822;2023-09-30T03:57:04;9.90;;;3.10;;
58460;SDS011;45558;37.752;-97.822;2023-09-30T03:59:30;15.02;;;4.47;;
58460;SDS011;45558;37.752;-97.822;2023-09-30T04:01:56;20.65;;;4.00;;
58460;SDS011;45558;37.752;-97.822;2023-09-30T04:04:24;14.35;;;4.20;;
58460;SDS011;45558;37.752;-97.822;2023-09-30T04:06:51;12.60;;;4.25;;
58460;SDS011;45558;37.752;-97.822;2023-09-30T04:09:17;12.32;;;4.30;;
58460;SDS011;45558;37.752;-97.822;2023-09-30T04:11:43;11.38;;;3.65;;
58460;SDS011;45558;37.752;-97.822;2023-09-30T04:14:09;15.55;;;4.60;;
58460;SDS011;45558;37.752;-97.822;2023-09-30T04:16:35;10.10;;;3.08;;
58460;SDS011;45558;37.752;-97.822;2023-09-30T04:19:02;13.82;;;3.35;;
58460;SDS011;45558;37.752;-97.822;2023-09-30T04:21:29;11.57;;;3.10;;
58460;SDS011;45558;37.752;-97.822;2023-09-30T04:23:59;10.10;;;2.60;;
58460;SDS011;45558;37.752;-97.822;2023-09-30T04:26:25;10.15;;;2.95;;
58460;SDS011;45558;37.752;-97.822;2023-09-30T04:28:51;9.65;;;2.70;;
58460;SDS011;45558;37.752;-97.822;2023-09-30T04:31:19;10.77;;;2.78;;
58460;SDS011;45558;37.752;-97.822;2023-09-30T04:33:46;9.30;;;2.63;;
58460;SDS011;45558;37.752;-97.822;2023-09-30T04:36:13;11.55;;;2.60;;
58460;SDS011;45558;37.752;-97.822;2023-09-30T04:38:39;13.75;;;2.58;;
58460;SDS011;45558;37.752;-97.822;2023-09-30T04:41:05;12.38;;;2.17;;
58460;SDS011;45558;37.752;-97.822;2023-09-30T04:43:33;11.27;;;2.97;;
58460;SDS011;45558;37.752;-97.822;2023-09-30T04:45:59;11.27;;;2.58;;
58460;SDS011;45558;37.752;-97.822;2023-09-30T04:48:25;19.25;;;4.30;;
58460;SDS011;45558;37.752;-97.822;2023-09-30T04:50:51;8.70;;;2.05;;
58460;SDS011;45558;37.752;-97.822;2023-09-30T04:53:17;8.20;;;2.38;;
58460;SDS011;45558;37.752;-97.822;2023-09-30T04:55:44;9.95;;;2.33;;
58460;SDS011;45558;37.752;-97.822;2023-09-30T04:58:10;15.68;;;2.92;;
58460;SDS011;45558;37.752;-97.822;2023-09-30T05:00:36;10.75;;;2.10;;
58460;SDS011;45558;37.752;-97.822;2023-09-30T05:03:02;15.60;;;2.50;;
58460;SDS011;45558;37.752;-97.822;2023-09-30T05:05:30;13.15;;;2.17;;
58460;SDS011;45558;37.752;-97.822;2023-09-30T05:07:56;9.70;;;2.10;;
58460;SDS011;45558;37.752;-97.822;2023-09-30T05:10:23;17.88;;;3.08;;
58460;SDS011;45558;37.752;-97.822;2023-09-30T05:12:49;14.35;;;2.85;;
58460;SDS011;45558;37.752;-97.822;2023-09-30T05:15:15;13.55;;;5.35;;
58460;SDS011;45558;37.752;-97.822;2023-09-30T05:17:44;11.00;;;2.85;;
58460;SDS011;45558;37.752;-97.822;2023-09-30T05:20:11;13.07;;;2.05;;
58460;SDS011;45558;37.752;-97.822;2023-09-30T05:22:40;8.00;;;1.83;;
58460;SDS011;45558;37.752;-97.822;2023-09-30T05:25:09;13.45;;;2.40;;
58460;SDS011;45558;37.752;-97.822;2023-09-30T05:27:35;14.23;;;2.42;;
58460;SDS011;45558;37.752;-97.822;2023-09-30T05:30:03;13.98;;;1.85;;
58460;SDS011;45558;37.752;-97.822;2023-09-30T05:32:32;14.05;;;3.72;;
58460;SDS011;45558;37.752;-97.822;2023-09-30T05:34:59;16.52;;;3.22;;
58460;SDS011;45558;37.752;-97.822;2023-09-30T05:37:28;18.17;;;4.95;;
58460;SDS011;45558;37.752;-97.822;2023-09-30T05:39:53;12.38;;;3.15;;
58460;SDS011;45558;37.752;-97.822;2023-09-30T05:42:19;12.63;;;1.98;;
58460;SDS011;45558;37.752;-97.822;2023-09-30T05:44:45;14.90;;;2.00;;
58460;SDS011;45558;37.752;-97.822;2023-09-30T05:47:11;20.23;;;2.10;;
58460;SDS011;45558;37.752;-97.822;2023-09-30T05:49:37;7.05;;;2.10;;
58460;SDS011;45558;37.752;-97.822;2023-09-30T05:52:03;14.82;;;3.00;;
58460;SDS011;45558;37.752;-97.822;2023-09-30T05:54:28;15.18;;;2.58;;
58460;SDS011;45558;37.752;-97.822;2023-09-30T05:56:55;12.38;;;2.60;;
58460;SDS011;45558;37.752;-97.822;2023-09-30T05:59:21;14.23;;;1.70;;
58460;SDS011;45558;37.752;-97.822;2023-09-30T06:01:50;13.55;;;2.30;;
58460;SDS011;45558;37.752;-97.822;2023-09-30T06:04:15;12.70;;;2.13;;
58460;SDS011;45558;37.752;-97.822;2023-09-30T06:06:41;16.55;;;2.22;;
58460;SDS011;45558;37.752;-97.822;2023-09-30T06:09:08;17.75;;;2.83;;
58460;SDS011;45558;37.752;-97.822;2023-09-30T06:11:34;10.55;;;3.25;;
58460;SDS011;45558;37.752;-97.822;2023-09-30T06:14:01;17.48;;;3.97;;
58460;SDS011;45558;37.752;-97.822;2023-09-30T06:16:31;18.60;;;4.05;;
58460;SDS011;45558;37.752;-97.822;2023-09-30T06:18:58;16.25;;;4.07;;
58460;SDS011;45558;37.752;-97.822;2023-09-30T06:21:24;39.60;;;6.70;;
58460;SDS011;45558;37.752;-97.822;2023-09-30T06:23:50;20.65;;;4.25;;
58460;SDS011;45558;37.752;-97.822;2023-09-30T06:26:19;20.77;;;4.78;;
58460;SDS011;45558;37.752;-97.822;2023-09-30T06:32:07;11.40;;;2.75;;
58460;SDS011;45558;37.752;-97.822;2023-09-30T06:34:33;18.90;;;3.83;;
58460;SDS011;45558;37.752;-97.822;2023-09-30T06:37:00;12.68;;;2.75;;
58460;SDS011;45558;37.752;-97.822;2023-09-30T06:39:26;18.35;;;3.28;;
58460;SDS011;45558;37.752;-97.822;2023-09-30T06:41:51;16.40;;;3.50;;
58460;SDS011;45558;37.752;-97.822;2023-09-30T06:44:17;16.98;;;5.95;;
58460;SDS011;45558;37.752;-97.822;2023-09-30T06:46:43;15.02;;;3.25;;
58460;SDS011;45558;37.752;-97.822;2023-09-30T06:49:08;14.88;;;2.13;;
58460;SDS011;45558;37.752;-97.822;2023-09-30T06:51:35;12.82;;;3.75;;
58460;SDS011;45558;37.752;-97.822;2023-09-30T06:54:04;24.02;;;4.55;;
58460;SDS011;45558;37.752;-97.822;2023-09-30T06:56:34;14.65;;;2.75;;
58460;SDS011;45558;37.752;-97.822;2023-09-30T06:59:00;13.93;;;2.88;;
58460;SDS011;45558;37.752;-97.822;2023-09-30T07:01:28;15.63;;;2.40;;
58460;SDS011;45558;37.752;-97.822;2023-09-30T07:03:57;11.38;;;2.60;;
58460;SDS011;45558;37.752;-97.822;2023-09-30T07:06:24;18.58;;;2.63;;
58460;SDS011;45558;37.752;-97.822;2023-09-30T07:08:51;17.17;;;3.08;;
58460;SDS011;45558;37.752;-97.822;2023-09-30T07:11:26;14.45;;;3.22;;
58460;SDS011;45558;37.752;-97.822;2023-09-30T07:13:53;12.88;;;2.42;;
58460;SDS011;45558;37.752;-97.822;2023-09-30T07:16:19;11.65;;;3.33;;
58460;SDS011;45558;37.752;-97.822;2023-09-30T07:18:44;17.52;;;2.60;;
58460;SDS011;45558;37.752;-97.822;2023-09-30T07:21:11;16.60;;;3.45;;
58460;SDS011;45558;37.752;-97.822;2023-09-30T07:23:38;13.82;;;3.20;;
58460;SDS011;45558;37.752;-97.822;2023-09-30T07:26:04;9.25;;;2.13;;
58460;SDS011;45558;37.752;-97.822;2023-09-30T07:28:29;17.92;;;2.90;;
58460;SDS011;45558;37.752;-97.822;2023-09-30T07:30:56;15.55;;;2.85;;
58460;SDS011;45558;37.752;-97.822;2023-09-30T07:33:22;14.68;;;2.67;;
58460;SDS011;45558;37.752;-97.822;2023-09-30T07:35:48;12.68;;;2.45;;
58460;SDS011;45558;37.752;-97.822;2023-09-30T07:38:14;16.92;;;2.70;;
58460;SDS011;45558;37.752;-97.822;2023-09-30T07:40:40;16.42;;;3.45;;
58460;SDS011;45558;37.752;-97.822;2023-09-30T07:43:06;14.07;;;2.03;;
58460;SDS011;45558;37.752;-97.822;2023-09-30T07:45:32;16.33;;;2.78;;
58460;SDS011;45558;37.752;-97.822;2023-09-30T07:47:58;13.48;;;3.03;;
58460;SDS011;45558;37.752;-97.822;2023-09-30T07:50:24;18.48;;;3.70;;
58460;SDS011;45558;37.752;-97.822;2023-09-30T07:52:50;12.93;;;2.20;;
58460;SDS011;45558;37.752;-97.822;2023-09-30T07:55:15;17.05;;;4.00;;
58460;SDS011;45558;37.752;-97.822;2023-09-30T07:57:42;16.00;;;2.53;;
58460;SDS011;45558;37.752;-97.822;2023-09-30T08:00:08;17.17;;;2.92;;
58460;SDS011;45558;37.752;-97.822;2023-09-30T08:02:40;16.35;;;2.45;;
58460;SDS011;45558;37.752;-97.822;2023-09-30T08:05:06;11.93;;;2.00;;
58460;SDS011;45558;37.752;-97.822;2023-09-30T08:07:33;10.25;;;2.25;;
58460;SDS011;45558;37.752;-97.822;2023-09-30T08:09:59;11.98;;;3.13;;
58460;SDS011;45558;37.752;-97.822;2023-09-30T08:12:25;23.05;;;9.57;;
58460;SDS011;45558;37.752;-97.822;2023-09-30T08:14:51;11.15;;;2.72;;
58460;SDS011;45558;37.752;-97.822;2023-09-30T08:17:17;11.20;;;2.28;;
58460;SDS011;45558;37.752;-97.822;2023-09-30T08:19:43;12.48;;;4.18;;
58460;SDS011;45558;37.752;-97.822;2023-09-30T08:22:09;18.10;;;2.35;;
58460;SDS011;45558;37.752;-97.822;2023-09-30T08:24:35;22.98;;;3.90;;
58460;SDS011;45558;37.752;-97.822;2023-09-30T08:27:01;14.90;;;2.60;;
58460;SDS011;45558;37.752;-97.822;2023-09-30T08:29:27;12.05;;;2.83;;
58460;SDS011;45558;37.752;-97.822;2023-09-30T08:31:52;13.52;;;2.45;;
58460;SDS011;45558;37.752;-97.822;2023-09-30T08:34:18;10.70;;;2.25;;
58460;SDS011;45558;37.752;-97.822;2023-09-30T08:36:46;15.38;;;2.10;;
58460;SDS011;45558;37.752;-97.822;2023-09-30T08:39:12;13.32;;;1.88;;
58460;SDS011;45558;37.752;-97.822;2023-09-30T08:41:38;10.90;;;3.45;;
58460;SDS011;45558;37.752;-97.822;2023-09-30T08:44:04;12.40;;;1.67;;
58460;SDS011;45558;37.752;-97.822;2023-09-30T08:46:33;16.80;;;2.20;;
58460;SDS011;45558;37.752;-97.822;2023-09-30T08:49:03;12.70;;;2.57;;
58460;SDS011;45558;37.752;-97.822;2023-09-30T08:51:29;15.53;;;1.87;;
58460;SDS011;45558;37.752;-97.822;2023-09-30T08:53:56;14.10;;;1.45;;
58460;SDS011;45558;37.752;-97.822;2023-09-30T08:56:24;15.05;;;3.83;;
58460;SDS011;45558;37.752;-97.822;2023-09-30T08:58:52;10.40;;;2.72;;
58460;SDS011;45558;37.752;-97.822;2023-09-30T09:01:21;10.57;;;1.80;;
58460;SDS011;45558;37.752;-97.822;2023-09-30T09:03:47;14.35;;;3.80;;
58460;SDS011;45558;37.752;-97.822;2023-09-30T09:06:18;18.88;;;5.97;;
58460;SDS011;45558;37.752;-97.822;2023-09-30T09:12:06;19.42;;;5.13;;
58460;SDS011;45558;37.752;-97.822;2023-09-30T09:14:44;27.75;;;7.18;;
58460;SDS011;45558;37.752;-97.822;2023-09-30T09:17:11;17.08;;;5.53;;
58460;SDS011;45558;37.752;-97.822;2023-09-30T09:19:37;13.52;;;1.95;;
58460;SDS011;45558;37.752;-97.822;2023-09-30T09:22:03;11.05;;;1.95;;
58460;SDS011;45558;37.752;-97.822;2023-09-30T09:24:36;15.07;;;4.75;;
58460;SDS011;45558;37.752;-97.822;2023-09-30T09:29:33;18.08;;;7.68;;
58460;SDS011;45558;37.752;-97.822;2023-09-30T09:32:06;15.73;;;2.92;;
58460;SDS011;45558;37.752;-97.822;2023-09-30T09:34:36;17.23;;;3.83;;
58460;SDS011;45558;37.752;-97.822;2023-09-30T09:37:19;20.13;;;9.00;;
58460;SDS011;45558;37.752;-97.822;2023-09-30T09:39:49;13.05;;;3.03;;
58460;SDS011;45558;37.752;-97.822;2023-09-30T09:42:23;15.80;;;6.45;;
58460;SDS011;45558;37.752;-97.822;2023-09-30T09:44:50;13.32;;;4.03;;
58460;SDS011;45558;37.752;-97.822;2023-09-30T09:47:18;13.90;;;3.35;;
58460;SDS011;45558;37.752;-97.822;2023-09-30T09:49:45;9.98;;;2.55;;
58460;SDS011;45558;37.752;-97.822;2023-09-30T09:52:10;14.48;;;4.65;;
58460;SDS011;45558;37.752;-97.822;2023-09-30T09:54:37;17.88;;;3.63;;
58460;SDS011;45558;37.752;-97.822;2023-09-30T09:57:03;12.05;;;3.13;;
58460;SDS011;45558;37.752;-97.822;2023-09-30T09:59:30;12.90;;;3.85;;
58460;SDS011;45558;37.752;-97.822;2023-09-30T10:01:55;12.07;;;3.20;;
58460;SDS011;45558;37.752;-97.822;2023-09-30T10:04:22;19.33;;;4.35;;
58460;SDS011;45558;37.752;-97.822;2023-09-30T10:06:47;16.27;;;4.55;;
58460;SDS011;45558;37.752;-97.822;2023-09-30T10:09:17;14.02;;;3.25;;
58460;SDS011;45558;37.752;-97.822;2023-09-30T10:11:45;18.05;;;2.70;;
58460;SDS011;45558;37.752;-97.822;2023-09-30T10:14:10;15.25;;;4.28;;
58460;SDS011;45558;37.752;-97.822;2023-09-30T10:16:55;9.25;;;2.95;;
58460;SDS011;45558;37.752;-97.822;2023-09-30T10:19:22;13.05;;;2.83;;
58460;SDS011;45558;37.752;-97.822;2023-09-30T10:24:43;12.60;;;3.97;;
58460;SDS011;45558;37.752;-97.822;2023-09-30T10:30:08;16.63;;;2.72;;
58460;SDS011;45558;37.752;-97.822;2023-09-30T10:35:18;12.73;;;3.45;;
58460;SDS011;45558;37.752;-97.822;2023-09-30T10:37:44;11.35;;;2.85;;
58460;SDS011;45558;37.752;-97.822;2023-09-30T10:40:25;21.42;;;8.13;;
58460;SDS011;45558;37.752;-97.822;2023-09-30T10:42:52;15.00;;;3.42;;
58460;SDS011;45558;37.752;-97.822;2023-09-30T10:50:50;11.88;;;4.32;;
58460;SDS011;45558;37.752;-97.822;2023-09-30T10:53:17;8.00;;;2.85;;
58460;SDS011;45558;37.752;-97.822;2023-09-30T10:55:46;15.18;;;5.82;;
58460;SDS011;45558;37.752;-97.822;2023-09-30T10:58:15;12.70;;;3.95;;
58460;SDS011;45558;37.752;-97.822;2023-09-30T11:00:53;10.35;;;3.90;;
58460;SDS011;45558;37.752;-97.822;2023-09-30T11:03:21;12.30;;;3.13;;
58460;SDS011;45558;37.752;-97.822;2023-09-30T11:05:48;10.38;;;2.75;;
58460;SDS011;45558;37.752;-97.822;2023-09-30T11:08:18;7.07;;;3.20;;
58460;SDS011;45558;37.752;-97.822;2023-09-30T11:10:51;9.27;;;4.05;;
58460;SDS011;45558;37.752;-97.822;2023-09-30T11:13:20;8.38;;;3.45;;
58460;SDS011;45558;37.752;-97.822;2023-09-30T11:15:46;17.38;;;8.43;;
58460;SDS011;45558;37.752;-97.822;2023-09-30T11:18:13;5.75;;;2.42;;
58460;SDS011;45558;37.752;-97.822;2023-09-30T11:20:40;8.07;;;3.10;;
58460;SDS011;45558;37.752;-97.822;2023-09-30T11:23:07;13.07;;;3.30;;
58460;SDS011;45558;37.752;-97.822;2023-09-30T11:25:36;11.90;;;5.55;;
58460;SDS011;45558;37.752;-97.822;2023-09-30T11:28:15;10.48;;;6.70;;
58460;SDS011;45558;37.752;-97.822;2023-09-30T11:30:58;3.63;;;1.38;;
58460;SDS011;45558;37.752;-97.822;2023-09-30T11:33:25;3.53;;;1.00;;
58460;SDS011;45558;37.752;-97.822;2023-09-30T11:36:05;3.30;;;2.42;;
58460;SDS011;45558;37.752;-97.822;2023-09-30T11:38:32;3.25;;;1.38;;
58460;SDS011;45558;37.752;-97.822;2023-09-30T11:41:00;2.30;;;0.60;;
58460;SDS011;45558;37.752;-97.822;2023-09-30T11:43:31;3.35;;;1.52;;
58460;SDS011;45558;37.752;-97.822;2023-09-30T11:46:05;6.22;;;1.25;;
58460;SDS011;45558;37.752;-97.822;2023-09-30T11:48:34;1.88;;;0.90;;
58460;SDS011;45558;37.752;-97.822;2023-09-30T11:51:03;2.67;;;1.15;;
58460;SDS011;45558;37.752;-97.822;2023-09-30T11:53:30;5.05;;;1.77;;
58460;SDS011;45558;37.752;-97.822;2023-09-30T11:55:59;4.22;;;1.35;;
58460;SDS011;45558;37.752;-97.822;2023-09-30T11:58:26;4.03;;;1.13;;
58460;SDS011;45558;37.752;-97.822;2023-09-30T12:00:55;4.53;;;0.63;;
58460;SDS011;45558;37.752;-97.822;2023-09-30T12:03:22;4.18;;;0.90;;
58460;SDS011;45558;37.752;-97.822;2023-09-30T12:05:48;0.65;;;0.50;;
58460;SDS011;45558;37.752;-97.822;2023-09-30T12:08:14;3.33;;;1.00;;
58460;SDS011;45558;37.752;-97.822;2023-09-30T12:10:40;2.97;;;0.85;;
58460;SDS011;45558;37.752;-97.822;2023-09-30T12:13:07;4.68;;;1.27;;
58460;SDS011;45558;37.752;-97.822;2023-09-30T12:15:34;4.93;;;0.60;;
58460;SDS011;45558;37.752;-97.822;2023-09-30T12:18:02;3.47;;;2.22;;
58460;SDS011;45558;37.752;-97.822;2023-09-30T12:20:28;4.18;;;1.10;;
58460;SDS011;45558;37.752;-97.822;2023-09-30T12:22:53;3.20;;;1.00;;
58460;SDS011;45558;37.752;-97.822;2023-09-30T12:25:19;3.50;;;1.15;;
58460;SDS011;45558;37.752;-97.822;2023-09-30T12:27:46;3.67;;;1.02;;
58460;SDS011;45558;37.752;-97.822;2023-09-30T12:30:13;1.98;;;1.33;;
58460;SDS011;45558;37.752;-97.822;2023-09-30T12:32:40;2.45;;;0.60;;
58460;SDS011;45558;37.752;-97.822;2023-09-30T12:35:06;2.17;;;0.52;;
58460;SDS011;45558;37.752;-97.822;2023-09-30T12:37:32;0.47;;;0.20;;
58460;SDS011;45558;37.752;-97.822;2023-09-30T12:39:57;5.57;;;1.70;;
58460;SDS011;45558;37.752;-97.822;2023-09-30T12:42:23;2.47;;;1.17;;
58460;SDS011;45558;37.752;-97.822;2023-09-30T12:44:49;1.58;;;0.40;;
58460;SDS011;45558;37.752;-97.822;2023-09-30T12:47:14;3.58;;;1.27;;
58460;SDS011;45558;37.752;-97.822;2023-09-30T12:49:40;6.45;;;2.35;;
58460;SDS011;45558;37.752;-97.822;2023-09-30T12:52:07;4.97;;;2.00;;
58460;SDS011;45558;37.752;-97.822;2023-09-30T12:54:32;6.15;;;1.75;;
58460;SDS011;45558;37.752;-97.822;2023-09-30T12:56:59;3.33;;;1.27;;
58460;SDS011;45558;37.752;-97.822;2023-09-30T12:59:25;5.78;;;1.40;;
58460;SDS011;45558;37.752;-97.822;2023-09-30T13:01:51;5.05;;;1.50;;
58460;SDS011;45558;37.752;-97.822;2023-09-30T13:04:17;3.05;;;1.13;;
58460;SDS011;45558;37.752;-97.822;2023-09-30T13:06:43;3.25;;;0.80;;
58460;SDS011;45558;37.752;-97.822;2023-09-30T13:09:10;3.97;;;1.92;;
58460;SDS011;45558;37.752;-97.822;2023-09-30T13:11:37;4.32;;;1.05;;
58460;SDS011;45558;37.752;-97.822;2023-09-30T13:14:03;4.10;;;1.92;;
58460;SDS011;45558;37.752;-97.822;2023-09-30T13:16:29;1.58;;;0.70;;
58460;SDS011;45558;37.752;-97.822;2023-09-30T13:18:54;4.60;;;1.25;;
58460;SDS011;45558;37.752;-97.822;2023-09-30T13:21:20;3.88;;;2.03;;
58460;SDS011;45558;37.752;-97.822;2023-09-30T13:23:46;4.65;;;4.20;;
58460;SDS011;45558;37.752;-97.822;2023-09-30T13:26:11;5.15;;;3.47;;
58460;SDS011;45558;37.752;-97.822;2023-09-30T13:28:37;3.75;;;1.60;;
58460;SDS011;45558;37.752;-97.822;2023-09-30T13:31:03;2.33;;;1.15;;
58460;SDS011;45558;37.752;-97.822;2023-09-30T13:33:29;2.28;;;2.00;;
58460;SDS011;45558;37.752;-97.822;2023-09-30T13:35:54;1.70;;;0.80;;
58460;SDS011;45558;37.752;-97.822;2023-09-30T13:38:20;1.50;;;0.70;;
58460;SDS011;45558;37.752;-97.822;2023-09-30T13:40:46;4.55;;;2.13;;
58460;SDS011;45558;37.752;-97.822;2023-09-30T13:43:12;8.40;;;4.63;;
58460;SDS011;45558;37.752;-97.822;2023-09-30T13:45:38;2.72;;;1.55;;
58460;SDS011;45558;37.752;-97.822;2023-09-30T13:48:04;12.02;;;2.35;;
58460;SDS011;45558;37.752;-97.822;2023-09-30T13:50:29;10.45;;;4.65;;
58460;SDS011;45558;37.752;-97.822;2023-09-30T13:52:55;3.17;;;1.15;;
58460;SDS011;45558;37.752;-97.822;2023-09-30T13:55:21;16.50;;;7.20;;
58460;SDS011;45558;37.752;-97.822;2023-09-30T13:57:48;18.48;;;8.38;;
58460;SDS011;45558;37.752;-97.822;2023-09-30T14:00:14;3.63;;;1.85;;
58460;SDS011;45558;37.752;-97.822;2023-09-30T14:02:41;4.07;;;2.13;;
58460;SDS011;45558;37.752;-97.822;2023-09-30T14:05:08;4.80;;;2.53;;
58460;SDS011;45558;37.752;-97.822;2023-09-30T14:07:34;5.57;;;3.00;;
58460;SDS011;45558;37.752;-97.822;2023-09-30T14:10:02;6.43;;;2.08;;
58460;SDS011;45558;37.752;-97.822;2023-09-30T14:12:31;12.00;;;5.13;;
58460;SDS011;45558;37.752;-97.822;2023-09-30T14:14:57;12.93;;;5.00;;
58460;SDS011;45558;37.752;-97.822;2023-09-30T14:17:23;17.73;;;7.15;;
58460;SDS011;45558;37.752;-97.822;2023-09-30T14:19:50;18.15;;;5.35;;
58460;SDS011;45558;37.752;-97.822;2023-09-30T14:22:16;10.05;;;4.63;;
58460;SDS011;45558;37.752;-97.822;2023-09-30T14:24:42;4.72;;;3.35;;
58460;SDS011;45558;37.752;-97.822;2023-09-30T14:27:08;5.30;;;3.38;;
58460;SDS011;45558;37.752;-97.822;2023-09-30T14:29:34;6.20;;;2.83;;
58460;SDS011;45558;37.752;-97.822;2023-09-30T14:32:00;4.90;;;2.17;;
58460;SDS011;45558;37.752;-97.822;2023-09-30T14:34:25;4.00;;;1.77;;
58460;SDS011;45558;37.752;-97.822;2023-09-30T14:36:51;7.30;;;4.88;;
58460;SDS011;45558;37.752;-97.822;2023-09-30T14:39:18;8.10;;;6.15;;
58460;SDS011;45558;37.752;-97.822;2023-09-30T14:41:44;5.63;;;3.38;;